Time;durP1;ratioP1;P1;durP2;ratioP2;P2;SDS_P1;SDS_P2;PMS_P1;PMS_P2;Temp;Humidity;BMP_temperature;BMP_pressure;BME280_temperature;BME280_humidity;BME280_pressure;Samples;Min_cycle;Max_cycle;Signal;HPM_P1;HPM_P2
2022/07/13 00:00:20;;;;;;;5.13;2.15;;;13.60;99.90;;;;;;4669891;30;20049;-83
2022/07/13 00:02:46;;;;;;;4.95;2.67;;;;;;;;;;4669827;30;20086;-85
2022/07/13 00:05:12;;;;;;;5.60;2.17;;;13.50;99.90;;;;;;4685618;30;20083;-86
2022/07/13 00:07:38;;;;;;;3.95;1.80;;;13.50;99.90;;;;;;4669663;30;20453;-85
2022/07/13 00:10:04;;;;;;;3.80;1.80;;;13.30;99.90;;;;;;4685298;30;20079;-85
2022/07/13 00:12:30;;;;;;;4.38;1.80;;;13.30;99.90;;;;;;4685599;30;20048;-83
2022/07/13 00:14:56;;;;;;;8.23;2.53;;;;;;;;;;4685533;30;20050;-88
2022/07/13 00:17:25;;;;;;;5.72;1.95;;;13.20;99.90;;;;;;4685539;30;20487;-86
2022/07/13 00:19:50;;;;;;;3.13;1.52;;;13.30;99.90;;;;;;4669565;30;20053;-85
2022/07/13 00:22:17;;;;;;;5.97;2.03;;;13.30;99.90;;;;;;4669428;30;20045;-85
2022/07/13 00:24:42;;;;;;;3.95;1.67;;;13.20;99.90;;;;;;4670932;30;20133;-87
2022/07/13 00:27:08;;;;;;;5.50;2.30;;;13.20;99.90;;;;;;4672210;30;20136;-85
2022/07/13 00:29:37;;;;;;;4.53;2.17;;;13.30;99.90;;;;;;4688385;30;20042;-88
2022/07/13 00:32:03;;;;;;;4.70;2.08;;;13.20;99.90;;;;;;4688486;30;20078;-88
2022/07/13 00:34:30;;;;;;;5.47;2.20;;;13.20;99.90;;;;;;4688534;30;20139;-84
2022/07/13 00:36:56;;;;;;;5.15;2.22;;;13.10;99.90;;;;;;4688666;30;20036;-85
2022/07/13 00:39:22;;;;;;;3.65;1.80;;;13.10;99.90;;;;;;4688305;30;20537;-87
2022/07/13 00:41:48;;;;;;;3.88;1.60;;;12.90;99.90;;;;;;4672963;30;20227;-84
2022/07/13 00:44:15;;;;;;;4.75;1.92;;;13.00;99.90;;;;;;4672621;30;20422;-87
2022/07/13 00:46:44;;;;;;;4.22;2.00;;;12.90;99.90;;;;;;4688693;30;20105;-83
2022/07/13 00:49:12;;;;;;;3.90;1.85;;;12.90;99.90;;;;;;4672553;30;20033;-84
2022/07/13 00:51:39;;;;;;;3.85;2.10;;;12.90;99.90;;;;;;4688210;30;20515;-83
2022/07/13 00:54:05;;;;;;;5.07;1.80;;;12.80;99.90;;;;;;4672418;30;20046;-83
2022/07/13 00:56:32;;;;;;;4.15;1.40;;;12.80;99.90;;;;;;4687977;30;20049;-84
2022/07/13 00:59:00;;;;;;;11.15;4.47;;;12.80;99.90;;;;;;4688371;30;20034;-85
2022/07/13 01:01:28;;;;;;;10.63;4.07;;;12.80;99.90;;;;;;4687967;30;20066;-84
2022/07/13 01:03:54;;;;;;;9.48;3.30;;;12.80;99.90;;;;;;4688101;30;20044;-86
2022/07/13 01:06:20;;;;;;;8.02;3.03;;;12.80;99.90;;;;;;4688249;30;20038;-84
2022/07/13 01:08:46;;;;;;;6.47;2.03;;;12.70;99.90;;;;;;4672393;30;20037;-85
2022/07/13 01:11:12;;;;;;;5.25;1.80;;;12.60;99.90;;;;;;4688046;30;20042;-83
2022/07/13 01:13:40;;;;;;;4.13;1.95;;;12.50;99.90;;;;;;4671774;30;20132;-84
2022/07/13 01:16:08;;;;;;;5.32;2.10;;;12.40;99.90;;;;;;4688033;30;20080;-85
2022/07/13 01:18:35;;;;;;;4.20;1.95;;;12.40;99.90;;;;;;4687848;30;20310;-84
2022/07/13 01:21:02;;;;;;;7.90;1.85;;;12.50;99.90;;;;;;4687906;30;20061;-87
2022/07/13 01:23:28;;;;;;;4.03;1.90;;;12.50;99.90;;;;;;4687985;30;20038;-83
2022/07/13 01:25:56;;;;;;;3.22;1.75;;;12.50;99.90;;;;;;4688009;30;20120;-83
2022/07/13 01:28:25;;;;;;;4.18;2.00;;;10.80;99.90;;;;;;4672354;30;20125;-86
2022/07/13 01:30:51;;;;;;;4.80;2.22;;;13.60;99.90;;;;;;4687718;30;20030;-86
2022/07/13 01:33:16;;;;;;;4.15;2.03;;;12.40;99.90;;;;;;4689450;30;20527;-85
2022/07/13 01:35:43;;;;;;;4.70;2.10;;;12.40;99.90;;;;;;4688169;30;20033;-84
2022/07/13 01:38:10;;;;;;;4.75;1.95;;;12.40;99.90;;;;;;4673171;30;20038;-83
2022/07/13 01:40:41;;;;;;;6.38;2.40;;;12.30;99.90;;;;;;4672742;30;20056;-84
2022/07/13 01:43:07;;;;;;;5.13;2.08;;;12.30;99.90;;;;;;4673708;30;20140;-83
2022/07/13 01:45:33;;;;;;;5.68;1.92;;;12.20;99.90;;;;;;4687672;30;20051;-84
2022/07/13 01:47:59;;;;;;;4.55;1.67;;;12.20;99.90;;;;;;4688916;30;20306;-84
2022/07/13 01:50:27;;;;;;;5.50;2.28;;;12.20;99.90;;;;;;4673110;30;20364;-82
2022/07/13 01:52:53;;;;;;;4.07;2.15;;;12.20;99.90;;;;;;4688325;30;20107;-86
2022/07/13 01:55:19;;;;;;;6.75;1.85;;;12.10;99.90;;;;;;4688958;30;20076;-84
2022/07/13 01:57:45;;;;;;;4.80;1.92;;;12.00;99.90;;;;;;4691746;30;20038;-84
2022/07/13 02:00:25;;;;;;;5.18;2.20;;;11.90;99.90;;;;;;4692298;30;20045;-83
2022/07/13 02:03:03;;;;;;;4.50;1.55;;;11.90;99.90;;;;;;4687796;30;20042;-83
2022/07/13 02:05:31;;;;;;;3.72;1.58;;;11.90;99.90;;;;;;4706269;30;20049;-82
2022/07/13 02:08:13;;;;;;;5.55;2.03;;;11.90;99.90;;;;;;4707406;30;20599;-82
2022/07/13 02:10:39;;;;;;;5.07;2.13;;;11.80;99.90;;;;;;4705119;30;20041;-84
2022/07/13 02:13:06;;;;;;;4.50;1.92;;;11.80;99.90;;;;;;4704034;30;20060;-83
2022/07/13 02:15:36;;;;;;;6.03;1.95;;;11.80;99.90;;;;;;4677934;30;20037;-82
2022/07/13 02:18:03;;;;;;;5.47;2.15;;;11.80;99.90;;;;;;4683275;30;20054;-82
2022/07/13 02:20:35;;;;;;;3.65;1.67;;;11.80;99.90;;;;;;4707050;30;20062;-82
2022/07/13 02:23:06;;;;;;;3.85;1.60;;;9.50;99.90;;;;;;4706975;30;20097;-82
2022/07/13 02:25:33;;;;;;;5.03;2.17;;;11.80;99.90;;;;;;4698750;30;20049;-83
2022/07/13 02:27:59;;;;;;;3.72;1.75;;;11.90;99.90;;;;;;4678547;30;20046;-83
2022/07/13 02:30:36;;;;;;;6.60;2.25;;;11.90;99.90;;;;;;4696606;30;20071;-84
2022/07/13 02:33:04;;;;;;;4.60;2.28;;;11.90;99.90;;;;;;4689570;30;20033;-84
2022/07/13 02:35:38;;;;;;;7.07;3.03;;;11.80;99.90;;;;;;4690302;30;20049;-82
2022/07/13 02:38:05;;;;;;;3.92;1.65;;;11.70;99.90;;;;;;4702602;30;20034;-84
2022/07/13 02:40:33;;;;;;;4.43;1.73;;;11.70;99.90;;;;;;4703530;30;20046;-83
2022/07/13 02:42:59;;;;;;;5.72;1.77;;;11.50;99.90;;;;;;4685589;30;20038;-82
2022/07/13 02:45:33;;;;;;;8.40;2.53;;;11.60;99.90;;;;;;4711345;30;20437;-82
2022/07/13 02:47:59;;;;;;;8.40;2.58;;;;;;;;;;4715824;30;20025;-80
2022/07/13 02:50:43;;;;;;;2.72;1.38;;;11.60;99.90;;;;;;4713944;30;20037;-82
2022/07/13 02:53:22;;;;;;;4.47;1.80;;;11.50;99.90;;;;;;4714445;30;20046;-82
2022/07/13 02:55:54;;;;;;;4.88;2.05;;;11.40;99.90;;;;;;4701230;30;20101;-81
2022/07/13 02:58:25;;;;;;;4.78;2.22;;;11.40;99.90;;;;;;4717596;30;20057;-81
2022/07/13 03:00:58;;;;;;;4.55;1.73;;;11.30;99.90;;;;;;4716012;30;20033;-82
2022/07/13 03:03:24;;;;;;;6.85;2.50;;;11.20;99.90;;;;;;4714771;30;20078;-81
2022/07/13 03:05:51;;;;;;;5.70;2.08;;;11.20;99.90;;;;;;4701484;30;20049;-82
2022/07/13 03:08:33;;;;;;;6.82;2.85;;;11.20;99.90;;;;;;4702500;30;20022;-82
2022/07/13 03:11:05;;;;;;;4.88;1.80;;;11.20;99.90;;;;;;4701651;30;20052;-81
2022/07/13 03:13:35;;;;;;;3.03;1.58;;;11.10;99.90;;;;;;4675776;30;20057;-83
2022/07/13 03:16:01;;;;;;;8.23;2.00;;;11.10;99.90;;;;;;4675242;30;20042;-81
2022/07/13 03:18:36;;;;;;;4.05;1.70;;;11.20;99.90;;;;;;4677290;30;20057;-82
2022/07/13 03:21:10;;;;;;;3.70;1.73;;;11.20;99.90;;;;;;4646067;30;20062;-81
2022/07/13 03:23:58;;;;;;;4.68;1.60;;;11.10;99.90;;;;;;4677990;30;20045;-82
2022/07/13 03:26:26;;;;;;;4.45;2.17;;;11.10;99.90;;;;;;4645368;30;20092;-83
2022/07/13 03:28:54;;;;;;;5.43;1.73;;;11.40;99.90;;;;;;4660676;30;20101;-83
2022/07/13 03:31:20;;;;;;;2.78;1.50;;;11.10;99.90;;;;;;4661244;30;20050;-81
2022/07/13 03:33:51;;;;;;;3.05;1.50;;;11.10;99.90;;;;;;4675374;30;20517;-82
2022/07/13 03:36:19;;;;;;;4.53;2.03;;;11.10;99.90;;;;;;4672767;30;20043;-81
2022/07/13 03:38:52;;;;;;;3.65;1.45;;;11.10;99.90;;;;;;4669393;30;20054;-84
2022/07/13 03:41:24;;;;;;;6.88;2.17;;;10.60;99.90;;;;;;4656991;30;20058;-82
2022/07/13 03:43:56;;;;;;;3.58;1.88;;;11.10;99.90;;;;;;4660282;30;20039;-82
2022/07/13 03:46:45;;;;;;;4.53;2.60;;;11.10;99.90;;;;;;4663571;30;20141;-82
2022/07/13 03:49:18;;;;;;;5.82;1.48;;;11.00;99.90;;;;;;4679742;30;20048;-82
2022/07/13 03:51:46;;;;;;;3.97;1.80;;;11.00;99.90;;;;;;4665279;30;20046;-81
2022/07/13 03:54:13;;;;;;;5.10;2.05;;;11.00;99.90;;;;;;4678019;30;20215;-82
2022/07/13 03:56:54;;;;;;;3.85;1.67;;;11.00;99.90;;;;;;4674734;30;20102;-81
2022/07/13 03:59:37;;;;;;;5.25;1.25;;;8.50;99.90;;;;;;4637596;30;20038;-81
2022/07/13 04:02:11;;;;;;;3.38;1.63;;;11.00;99.90;;;;;;4660705;30;20050;-83
2022/07/13 04:04:37;;;;;;;6.65;2.45;;;11.00;99.90;;;;;;4678670;30;20050;-81
2022/07/13 04:07:08;;;;;;;4.47;1.98;;;11.00;99.90;;;;;;4680087;30;20402;-81
2022/07/13 04:09:43;;;;;;;4.28;1.85;;;11.10;99.90;;;;;;4675352;30;20056;-81
2022/07/13 04:12:11;;;;;;;3.03;1.30;;;11.10;99.90;;;;;;4716544;30;20018;-81
2022/07/13 04:14:41;;;;;;;5.35;1.90;;;11.10;99.90;;;;;;4720844;30;20228;-82
2022/07/13 04:17:08;;;;;;;3.03;1.60;;;11.10;99.90;;;;;;4722689;30;20030;-81
2022/07/13 04:19:41;;;;;;;5.70;2.03;;;8.40;99.90;;;;;;4718382;30;20025;-82
2022/07/13 04:22:08;;;;;;;6.15;2.10;;;7.80;99.90;;;;;;4719995;30;20053;-81
2022/07/13 04:24:46;;;;;;;5.22;2.15;;;10.90;99.90;;;;;;4721075;30;20097;-81
2022/07/13 04:27:12;;;;;;;5.47;1.88;;;11.10;99.90;;;;;;4720339;30;20042;-83
2022/07/13 04:29:40;;;;;;;5.07;1.92;;;11.10;99.90;;;;;;4718402;30;20057;-84
2022/07/13 04:32:10;;;;;;;3.50;1.73;;;11.20;99.90;;;;;;4668753;30;20042;-80
2022/07/13 04:34:37;;;;;;;4.40;1.75;;;11.30;99.90;;;;;;4697193;30;20066;-82
2022/07/13 04:37:04;;;;;;;2.83;1.70;;;11.40;99.90;;;;;;4695906;30;20073;-82
2022/07/13 04:39:44;;;;;;;3.42;1.45;;;9.10;99.90;;;;;;4690611;30;20042;-82
2022/07/13 04:42:13;;;;;;;3.67;1.70;;;11.60;99.90;;;;;;4680668;30;20124;-82
2022/07/13 04:44:38;;;;;;;5.95;2.00;;;11.60;99.90;;;;;;4679654;30;20038;-82
2022/07/13 04:47:07;;;;;;;3.30;1.63;;;11.80;99.90;;;;;;4657770;30;20092;-84
2022/07/13 04:49:33;;;;;;;4.38;2.63;;;11.80;99.90;;;;;;4655744;30;20477;-83
2022/07/13 04:52:02;;;;;;;3.65;1.67;;;;;;;;;;4670307;30;20133;-84
2022/07/13 04:54:31;;;;;;;6.07;2.15;;;11.90;99.90;;;;;;4670521;30;20053;-83
2022/07/13 04:57:02;;;;;;;12.40;4.80;;;12.00;99.90;;;;;;4656473;30;20108;-82
2022/07/13 04:59:28;;;;;;;23.20;7.53;;;12.10;99.90;;;;;;4671901;30;20034;-85
2022/07/13 05:01:54;;;;;;;32.08;13.45;;;12.20;99.90;;;;;;4670283;30;20042;-84
2022/07/13 05:04:20;;;;;;;28.45;10.98;;;12.30;99.90;;;;;;4689125;30;20063;-87
2022/07/13 05:06:45;;;;;;;21.15;9.80;;;12.30;99.90;;;;;;4689001;30;20033;-83
2022/07/13 05:09:11;;;;;;;21.27;10.32;;;12.40;99.90;;;;;;4688880;30;20034;-85
2022/07/13 05:11:39;;;;;;;36.40;16.35;;;12.50;99.90;;;;;;4672812;30;20096;-83
2022/07/13 05:14:05;;;;;;;30.55;14.05;;;12.70;99.90;;;;;;4688349;30;20667;-85
2022/07/13 05:16:31;;;;;;;35.30;15.27;;;12.70;99.90;;;;;;4688477;30;20038;-87
2022/07/13 05:18:57;;;;;;;28.38;12.43;;;;;;;;;;4687956;30;20320;-85
2022/07/13 05:21:23;;;;;;;13.70;6.15;;;13.00;99.90;;;;;;4671924;30;20135;-85
2022/07/13 05:23:48;;;;;;;8.73;3.17;;;13.90;99.90;;;;;;4672495;30;20302;-86
2022/07/13 05:26:14;;;;;;;6.78;3.63;;;13.30;99.90;;;;;;4687859;30;20102;-85
2022/07/13 05:28:41;;;;;;;5.63;2.42;;;13.30;99.90;;;;;;4672474;30;20072;-87
2022/07/13 05:31:08;;;;;;;5.25;2.33;;;13.30;99.90;;;;;;4671979;30;20275;-89
2022/07/13 05:33:34;;;;;;;4.72;2.22;;;13.40;99.90;;;;;;4687850;30;20411;-83
2022/07/13 05:36:04;;;;;;;5.45;2.35;;;13.50;99.90;;;;;;4687823;30;20576;-84
2022/07/13 05:38:30;;;;;;;5.13;2.45;;;13.50;99.90;;;;;;4672007;30;20071;-86
2022/07/13 05:40:57;;;;;;;5.22;2.58;;;13.70;99.90;;;;;;4687041;30;20525;-82
2022/07/13 05:43:23;;;;;;;4.60;2.30;;;13.80;99.90;;;;;;4671072;30;20228;-84
2022/07/13 05:45:48;;;;;;;5.25;2.10;;;13.80;99.90;;;;;;4687273;30;20410;-86
2022/07/13 05:48:14;;;;;;;7.30;3.10;;;;;;;;;;4687327;30;20050;-87
2022/07/13 05:50:40;;;;;;;6.88;2.53;;;14.00;99.90;;;;;;4687304;30;20282;-86
2022/07/13 05:53:06;;;;;;;8.05;3.00;;;14.20;99.90;;;;;;4671430;30;20042;-84
2022/07/13 05:55:32;;;;;;;5.82;2.60;;;;;;;;;;4686950;30;20059;-87
2022/07/13 05:57:58;;;;;;;5.13;2.30;;;14.40;99.70;;;;;;4686755;30;20108;-85
2022/07/13 06:00:23;;;;;;;6.22;2.70;;;14.50;99.90;;;;;;4671351;30;20238;-84
2022/07/13 06:02:49;;;;;;;4.65;2.58;;;14.70;99.80;;;;;;4687105;30;20053;-83
2022/07/13 06:05:15;;;;;;;5.88;2.83;;;14.80;99.60;;;;;;4670892;30;20049;-83
2022/07/13 06:07:41;;;;;;;6.13;2.75;;;14.90;99.40;;;;;;4687086;30;20123;-84
2022/07/13 06:10:07;;;;;;;7.45;2.95;;;15.00;99.30;;;;;;4670870;30;20501;-82
2022/07/13 06:12:39;;;;;;;5.35;2.20;;;15.20;99.00;;;;;;4670707;30;20049;-84
2022/07/13 06:15:08;;;;;;;7.78;2.42;;;15.30;98.60;;;;;;4670786;30;20046;-87
2022/07/13 06:17:34;;;;;;;8.57;2.58;;;15.00;98.10;;;;;;4687572;30;20053;-85
2022/07/13 06:20:00;;;;;;;7.30;3.15;;;15.40;98.20;;;;;;4671622;30;20053;-81
2022/07/13 06:22:29;;;;;;;5.55;2.83;;;15.50;98.10;;;;;;4686975;30;20260;-86
2022/07/13 06:24:54;;;;;;;6.20;2.78;;;15.70;98.10;;;;;;4686740;30;20041;-85
2022/07/13 06:27:20;;;;;;;8.80;3.17;;;;;;;;;;4686313;30;20045;-84
2022/07/13 06:29:46;;;;;;;8.48;3.60;;;16.00;97.20;;;;;;4670516;30;20350;-83
2022/07/13 06:32:12;;;;;;;6.07;2.90;;;16.00;97.70;;;;;;4685951;30;20068;-85
2022/07/13 06:34:38;;;;;;;6.97;3.72;;;16.10;97.70;;;;;;4670381;30;20041;-84
2022/07/13 06:37:04;;;;;;;6.72;2.67;;;16.30;97.50;;;;;;4686032;30;20304;-85
2022/07/13 06:39:29;;;;;;;8.65;3.28;;;16.30;97.40;;;;;;4686355;30;20049;-85
2022/07/13 06:41:58;;;;;;;7.45;2.72;;;16.50;96.80;;;;;;4686808;30;20042;-86
2022/07/13 06:44:33;;;;;;;9.10;2.92;;;16.60;96.70;;;;;;4671759;30;20149;-85
2022/07/13 06:46:59;;;;;;;6.13;2.97;;;16.70;97.10;;;;;;4686675;30;20045;-84
2022/07/13 06:49:28;;;;;;;7.50;3.35;;;16.80;96.60;;;;;;4687044;30;20450;-87
2022/07/13 06:51:57;;;;;;;7.28;3.25;;;16.80;96.40;;;;;;4670040;30;20057;-84
2022/07/13 06:54:23;;;;;;;5.68;2.50;;;16.90;96.00;;;;;;4685597;30;20165;-84
2022/07/13 06:56:48;;;;;;;6.13;2.67;;;17.00;96.00;;;;;;4685574;30;20516;-84
2022/07/13 06:59:14;;;;;;;4.50;2.45;;;17.20;95.70;;;;;;4669806;30;20037;-83
2022/07/13 07:01:40;;;;;;;6.07;2.92;;;17.30;95.80;;;;;;4669317;30;20056;-84
2022/07/13 07:04:06;;;;;;;7.47;3.13;;;17.10;95.60;;;;;;4685417;30;20107;-83
2022/07/13 07:06:34;;;;;;;8.27;3.17;;;17.40;95.50;;;;;;4685384;30;20449;-84
2022/07/13 07:09:03;;;;;;;10.02;3.42;;;17.60;95.40;;;;;;4685635;30;20204;-87
2022/07/13 07:11:28;;;;;;;6.43;3.20;;;17.70;95.10;;;;;;4669489;30;20359;-84
2022/07/13 07:13:59;;;;;;;6.60;2.85;;;17.80;95.10;;;;;;4685058;30;20743;-84
2022/07/13 07:16:25;;;;;;;8.95;2.72;;;17.70;95.10;;;;;;4684990;30;20048;-84
2022/07/13 07:18:51;;;;;;;6.88;3.13;;;17.90;95.20;;;;;;4685292;30;20251;-83
2022/07/13 07:21:17;;;;;;;6.47;3.25;;;18.40;95.00;;;;;;4684844;30;20101;-86
2022/07/13 07:23:42;;;;;;;8.55;3.15;;;18.20;94.80;;;;;;4669039;30;20106;-83
2022/07/13 07:26:08;;;;;;;6.35;2.65;;;18.40;94.20;;;;;;4684836;30;20033;-83
2022/07/13 07:28:35;;;;;;;8.45;2.67;;;18.70;94.10;;;;;;4669018;30;20038;-83
2022/07/13 07:31:00;;;;;;;6.22;2.55;;;18.90;93.40;;;;;;4668964;30;20044;-83
2022/07/13 07:33:26;;;;;;;7.55;3.10;;;21.40;93.80;;;;;;4669137;30;20046;-84
2022/07/13 07:35:52;;;;;;;5.88;2.83;;;18.90;93.10;;;;;;4672511;30;20108;-84
2022/07/13 07:38:18;;;;;;;7.05;3.03;;;;;;;;;;4688534;30;20510;-84
2022/07/13 07:40:44;;;;;;;7.47;2.90;;;19.10;92.60;;;;;;4672518;30;20049;-83
2022/07/13 07:43:10;;;;;;;7.82;3.08;;;19.40;92.70;;;;;;4688161;30;20471;-82
2022/07/13 07:45:35;;;;;;;6.85;2.67;;;19.60;92.30;;;;;;4688138;30;20296;-84
2022/07/13 07:48:09;;;;;;;5.00;2.40;;;19.70;91.80;;;;;;4688161;30;20602;-85
2022/07/13 07:50:34;;;;;;;;;;;19.90;91.60;;;;;;4688568;30;20228;-85
2022/07/13 07:53:00;;;;;;;7.72;2.83;;;20.00;91.60;;;;;;4688089;30;20223;-83
2022/07/13 07:55:29;;;;;;;6.32;2.75;;;20.00;91.30;;;;;;4672170;30;20076;-85
2022/07/13 07:57:55;;;;;;;5.32;2.42;;;20.00;91.40;;;;;;4688055;30;20034;-83
2022/07/13 08:00:22;;;;;;;5.53;2.38;;;20.00;91.30;;;;;;4672092;30;20635;-83
2022/07/13 08:03:06;;;;;;;5.90;2.40;;;;;;;;;;4672043;30;20049;-82
2022/07/13 08:05:32;;;;;;;7.03;2.15;;;20.30;90.50;;;;;;4687986;30;20041;-83
2022/07/13 08:07:58;;;;;;;6.28;2.88;;;20.30;90.80;;;;;;4672048;30;20512;-84
2022/07/13 08:10:24;;;;;;;4.78;2.65;;;20.50;90.70;;;;;;4687830;30;20127;-83
2022/07/13 08:12:51;;;;;;;8.60;2.55;;;20.60;91.20;;;;;;4687772;30;20037;-84
2022/07/13 08:15:17;;;;;;;6.80;2.30;;;20.60;90.60;;;;;;4688098;30;20434;-82
2022/07/13 08:17:54;;;;;;;5.40;2.50;;;20.80;90.70;;;;;;4687830;30;20179;-82
2022/07/13 08:20:20;;;;;;;8.63;2.72;;;20.70;90.30;;;;;;4672130;30;20199;-83
2022/07/13 08:22:46;;;;;;;7.18;2.63;;;21.00;90.00;;;;;;4687871;30;20426;-84
2022/07/13 08:25:18;;;;;;;5.05;2.25;;;21.10;89.30;;;;;;4687657;30;20056;-85
2022/07/13 08:27:44;;;;;;;6.30;2.67;;;21.30;88.90;;;;;;4687569;30;20315;-83
2022/07/13 08:30:11;;;;;;;5.70;2.78;;;21.20;88.60;;;;;;4687435;30;20498;-85
2022/07/13 08:32:37;;;;;;;6.53;2.58;;;21.40;88.10;;;;;;4687492;30;20327;-85
2022/07/13 08:40:42;;;;;;;4.78;2.28;;;21.30;86.80;;;;;;4687077;30;20061;-85
2022/07/13 08:43:08;;;;;;;6.50;2.42;;;21.20;85.80;;;;;;4687336;30;20045;-84
2022/07/13 08:45:33;;;;;;;7.35;2.50;;;21.30;85.70;;;;;;4686958;30;20092;-84
2022/07/13 08:48:00;;;;;;;7.07;1.80;;;21.90;82.30;;;;;;4672103;30;20320;-84
2022/07/13 08:50:30;;;;;;;2.75;1.63;;;21.90;83.70;;;;;;4688349;30;20101;-84
2022/07/13 08:52:56;;;;;;;2.78;1.38;;;22.10;79.30;;;;;;4657448;30;20046;-82
2022/07/13 08:55:31;;;;;;;3.42;1.40;;;22.30;77.90;;;;;;4687019;30;20175;-85
2022/07/13 08:57:56;;;;;;;3.58;1.40;;;22.40;74.20;;;;;;4670980;30;20042;-82
2022/07/13 09:00:22;;;;;;;4.25;1.60;;;22.50;73.70;;;;;;4671278;30;20050;-83
2022/07/13 09:02:49;;;;;;;4.93;1.50;;;22.50;72.80;;;;;;4687046;30;20366;-82
2022/07/13 09:05:20;;;;;;;2.55;1.27;;;22.60;72.60;;;;;;4671345;30;20311;-84
2022/07/13 09:08:06;;;;;;;4.95;1.60;;;25.20;72.50;;;;;;4686954;30;20041;-84
2022/07/13 09:10:33;;;;;;;1.90;1.05;;;;;;;;;;4686941;30;20123;-84
2022/07/13 09:12:58;;;;;;;4.70;1.17;;;22.70;69.20;;;;;;4671005;30;20037;-82
2022/07/13 09:15:24;;;;;;;3.90;1.63;;;22.60;70.40;;;;;;4686562;30;20042;-83
2022/07/13 09:17:50;;;;;;;7.50;2.33;;;22.50;71.40;;;;;;4686929;30;20037;-84
2022/07/13 09:20:17;;;;;;;5.25;1.38;;;22.70;71.10;;;;;;4686619;30;20139;-84
2022/07/13 09:22:49;;;;;;;1.75;1.10;;;22.90;69.00;;;;;;4687159;30;20058;-83
2022/07/13 09:25:32;;;;;;;4.40;1.50;;;22.80;68.90;;;;;;4686685;30;20042;-83
2022/07/13 09:28:09;;;;;;;1.90;1.27;;;22.90;68.30;;;;;;4687088;30;20128;-84
2022/07/13 09:30:36;;;;;;;3.33;1.38;;;23.30;67.90;;;;;;4686654;30;20037;-83
2022/07/13 09:33:03;;;;;;;2.55;1.10;;;23.50;66.30;;;;;;4671120;30;20242;-82
2022/07/13 09:35:45;;;;;;;3.33;1.42;;;23.70;65.60;;;;;;4670989;30;20577;-84
2022/07/13 09:38:28;;;;;;;4.95;1.48;;;23.90;65.10;;;;;;4686697;30;20156;-83
2022/07/13 09:40:54;;;;;;;3.47;1.25;;;24.00;64.40;;;;;;4671034;30;20054;-85
2022/07/13 09:46:11;;;;;;;2.75;1.52;;;24.00;62.70;;;;;;4686974;30;20431;-83
2022/07/13 09:48:38;;;;;;;3.47;1.30;;;24.20;63.50;;;;;;4669821;30;20048;-85
2022/07/13 09:51:05;;;;;;;5.28;1.45;;;24.30;62.10;;;;;;4686410;30;20041;-83
2022/07/13 09:53:33;;;;;;;5.15;1.55;;;24.20;63.80;;;;;;4686367;30;20048;-83
2022/07/13 09:56:01;;;;;;;2.97;1.33;;;24.20;63.10;;;;;;4686341;30;20400;-82
2022/07/13 09:58:32;;;;;;;2.78;1.60;;;24.30;63.50;;;;;;4669895;30;20323;-83
2022/07/13 10:01:03;;;;;;;5.07;1.63;;;24.40;63.10;;;;;;4686036;30;20049;-85
2022/07/13 10:03:30;;;;;;;5.03;1.80;;;24.50;64.50;;;;;;4670227;30;20038;-83
2022/07/13 10:05:57;;;;;;;3.40;1.63;;;24.70;63.50;;;;;;4686180;30;20246;-83
2022/07/13 10:08:24;;;;;;;4.32;1.45;;;25.00;63.00;;;;;;4685995;30;20037;-82
2022/07/13 10:10:50;;;;;;;2.22;1.20;;;;;;;;;;4686199;30;20447;-83
2022/07/13 10:13:20;;;;;;;4.85;1.75;;;25.10;61.80;;;;;;4670542;30;20124;-84
2022/07/13 10:15:46;;;;;;;2.63;1.45;;;25.20;63.20;;;;;;4670019;30;20048;-82
2022/07/13 10:18:35;;;;;;;5.95;1.63;;;25.30;62.70;;;;;;4685803;30;20030;-83
2022/07/13 10:21:20;;;;;;;2.42;1.30;;;25.10;61.90;;;;;;4685430;30;20064;-83
2022/07/13 10:23:50;;;;;;;2.75;1.58;;;25.30;60.80;;;;;;4685441;30;20042;-81
2022/07/13 10:26:20;;;;;;;2.03;1.20;;;25.60;60.70;;;;;;4670218;30;20442;-83
2022/07/13 10:29:12;;;;;;;5.25;1.45;;;25.40;61.10;;;;;;4685139;30;20034;-82
2022/07/13 10:31:40;;;;;;;8.60;1.63;;;25.20;60.60;;;;;;4669808;30;20295;-83
2022/07/13 10:34:12;;;;;;;3.80;1.60;;;25.40;59.80;;;;;;4685373;30;20034;-84
2022/07/13 10:36:52;;;;;;;7.63;1.45;;;24.10;58.70;;;;;;4685310;30;20575;-84
2022/07/13 10:39:21;;;;;;;2.60;1.40;;;25.40;58.30;;;;;;4669381;30;20284;-83
2022/07/13 10:42:14;;;;;;;3.72;1.40;;;25.00;59.50;;;;;;4685492;30;20387;-81
2022/07/13 10:44:45;;;;;;;4.85;1.48;;;24.50;60.50;;;;;;4616820;30;20042;-84
2022/07/13 10:47:12;;;;;;;3.60;1.63;;;24.30;60.90;;;;;;4631170;30;20122;-84
2022/07/13 10:49:46;;;;;;;3.13;1.25;;;24.00;62.00;;;;;;4631177;30;20057;-83
2022/07/13 10:52:25;;;;;;;6.43;1.70;;;24.30;61.50;;;;;;4616998;30;20316;-84
2022/07/13 10:55:03;;;;;;;3.85;1.42;;;24.50;61.00;;;;;;4631219;30;20121;-83
2022/07/13 10:57:30;;;;;;;2.95;1.40;;;24.80;60.10;;;;;;4617060;30;20920;-82
2022/07/13 11:00:28;;;;;;;3.45;1.38;;;25.20;59.60;;;;;;4631198;30;20051;-83
2022/07/13 11:03:01;;;;;;;2.63;1.10;;;25.30;58.70;;;;;;4616473;30;20503;-83
2022/07/13 11:05:34;;;;;;;4.20;1.23;;;25.00;58.20;;;;;;4631351;30;20043;-84
2022/07/13 11:08:14;;;;;;;2.10;1.20;;;24.50;58.80;;;;;;4616789;30;20057;-84
2022/07/13 11:10:41;;;;;;;6.07;1.83;;;24.70;58.90;;;;;;4630776;30;20547;-84
2022/07/13 11:13:14;;;;;;;4.13;1.30;;;24.70;58.70;;;;;;4616949;30;20055;-83
2022/07/13 11:15:49;;;;;;;3.08;1.23;;;25.20;59.30;;;;;;4630846;30;20043;-84
2022/07/13 11:18:44;;;;;;;2.20;1.25;;;25.70;57.10;;;;;;4631139;30;20769;-83
2022/07/13 11:21:23;;;;;;;2.75;1.33;;;25.80;56.20;;;;;;4649504;30;20460;-84
2022/07/13 11:26:51;;;;;;;4.65;1.38;;;25.50;55.80;;;;;;4685770;30;20120;-84
2022/07/13 11:29:38;;;;;;;2.33;0.95;;;25.50;57.20;;;;;;4686293;30;20038;-84
2022/07/13 11:32:06;;;;;;;3.63;1.23;;;26.40;56.60;;;;;;4685236;30;20115;-84
2022/07/13 11:34:32;;;;;;;3.03;1.08;;;25.00;56.20;;;;;;4685154;30;20037;-83
2022/07/13 11:37:00;;;;;;;1.88;1.00;;;24.80;55.20;;;;;;4684750;30;20335;-84
2022/07/13 11:39:31;;;;;;;2.25;1.05;;;24.90;55.60;;;;;;4669051;30;20520;-83
2022/07/13 11:41:59;;;;;;;2.28;1.02;;;25.40;54.90;;;;;;4684690;30;20654;-83
2022/07/13 11:44:32;;;;;;;2.83;1.10;;;25.80;54.20;;;;;;4684724;30;20548;-83
2022/07/13 11:47:03;;;;;;;2.03;1.00;;;25.90;53.60;;;;;;4684830;30;20176;-83
2022/07/13 11:49:48;;;;;;;3.58;1.70;;;26.10;53.40;;;;;;4684580;30;20036;-83
2022/07/13 11:52:24;;;;;;;0.93;0.85;;;26.40;52.90;;;;;;4668971;30;20454;-85
2022/07/13 11:55:08;;;;;;;2.55;0.90;;;26.70;53.00;;;;;;4684612;30;20045;-83
2022/07/13 11:57:37;;;;;;;2.67;1.10;;;27.40;52.90;;;;;;4684424;30;20034;-85
2022/07/13 12:00:08;;;;;;;3.28;1.27;;;27.70;51.80;;;;;;4684888;30;20049;-85
2022/07/13 12:02:37;;;;;;;2.00;1.08;;;27.70;50.30;;;;;;4669051;30;20123;-83
2022/07/13 12:05:03;;;;;;;2.13;0.90;;;28.80;49.30;;;;;;4685350;30;20255;-82
2022/07/13 12:07:32;;;;;;;2.92;1.27;;;29.20;49.50;;;;;;4668904;30;20116;-83
2022/07/13 12:10:08;;;;;;;4.00;1.33;;;28.90;46.80;;;;;;4684658;30;20423;-84
2022/07/13 12:12:40;;;;;;;6.70;1.90;;;28.90;47.40;;;;;;4684321;30;20128;-83
2022/07/13 12:15:07;;;;;;;6.38;1.83;;;29.00;47.80;;;;;;4684595;30;20119;-82
2022/07/13 12:17:50;;;;;;;3.15;1.30;;;29.20;48.50;;;;;;4684494;30;20049;-83
2022/07/13 12:20:18;;;;;;;5.85;1.67;;;29.40;47.00;;;;;;4684893;30;20140;-81
2022/07/13 12:22:59;;;;;;;3.45;1.60;;;29.60;46.80;;;;;;4687633;30;20038;-83
2022/07/13 12:25:36;;;;;;;3.10;1.20;;;29.90;46.00;;;;;;4687680;30;20077;-81
2022/07/13 12:28:05;;;;;;;3.70;1.00;;;29.40;46.10;;;;;;4671801;30;20061;-83
2022/07/13 12:30:32;;;;;;;2.58;0.90;;;28.30;47.10;;;;;;4687539;30;20120;-83
2022/07/13 12:33:05;;;;;;;2.50;0.80;;;28.20;46.90;;;;;;4687469;30;20037;-82
2022/07/13 12:35:36;;;;;;;1.67;0.90;;;28.20;47.40;;;;;;4687299;30;20121;-82
2022/07/13 12:38:14;;;;;;;1.27;0.90;;;29.00;47.60;;;;;;4671664;30;20356;-82
2022/07/13 12:40:52;;;;;;;4.18;1.10;;;29.40;46.80;;;;;;4687010;30;20060;-84
2022/07/13 12:43:18;;;;;;;2.03;0.90;;;30.20;45.70;;;;;;4671073;30;20446;-83
2022/07/13 12:45:49;;;;;;;1.65;0.88;;;30.70;44.70;;;;;;4687466;30;20115;-84
2022/07/13 12:48:25;;;;;;;2.25;0.93;;;30.60;43.90;;;;;;4687139;30;20592;-83
2022/07/13 12:51:02;;;;;;;1.52;1.00;;;30.60;43.70;;;;;;4671229;30;20544;-83
2022/07/13 12:53:47;;;;;;;1.65;0.80;;;31.30;43.30;;;;;;4686860;30;20045;-84
2022/07/13 12:56:17;;;;;;;3.10;1.00;;;30.60;43.00;;;;;;4687076;30;20513;-83
2022/07/13 12:58:50;;;;;;;1.65;0.80;;;30.50;43.90;;;;;;4687092;30;20041;-82
2022/07/13 13:01:45;;;;;;;2.08;1.02;;;30.70;43.10;;;;;;4670870;30;20117;-84
2022/07/13 13:04:12;;;;;;;2.17;0.98;;;31.20;42.50;;;;;;4632545;30;20468;-83
2022/07/13 13:06:43;;;;;;;0.73;0.60;;;31.80;42.50;;;;;;4632618;30;20062;-84
2022/07/13 13:09:15;;;;;;;0.93;0.80;;;32.50;42.10;;;;;;4632543;30;20092;-84
2022/07/13 13:11:42;;;;;;;1.70;0.73;;;33.00;41.70;;;;;;4632418;30;20054;-82
2022/07/13 13:14:08;;;;;;;0.93;0.82;;;33.70;40.90;;;;;;4632394;30;20046;-83